createdAt,value
2023-01-02T00:01:48.445Z,97941.47
2023-01-02T00:04:14.909Z,97945.00
2023-01-02T00:06:41.357Z,97938.25
2023-01-02T00:09:07.928Z,97939.06
2023-01-02T00:11:34.489Z,97928.47
2023-01-02T00:14:00.956Z,97919.88
2023-01-02T00:16:27.449Z,97903.94
2023-01-02T00:18:53.947Z,97907.88
2023-01-02T00:21:20.409Z,97910.88
2023-01-02T00:23:46.863Z,97909.56
2023-01-02T00:26:13.321Z,97904.81
2023-01-02T00:28:39.823Z,97903.28
2023-01-02T00:31:10.797Z,97909.78
2023-01-02T00:33:37.349Z,97905.34
2023-01-02T00:36:07.517Z,97894.34
2023-01-02T00:38:37.847Z,97884.41
2023-01-02T00:41:04.870Z,97880.41
2023-01-02T00:43:31.382Z,97873.69
2023-01-02T00:45:58.063Z,97882.31
2023-01-02T00:48:24.590Z,97876.31
2023-01-02T00:50:51.084Z,97868.72
2023-01-02T00:53:17.621Z,97873.75
2023-01-02T00:55:44.806Z,97867.91
2023-01-02T00:58:11.509Z,97868.84
2023-01-02T01:00:38.057Z,97874.91
2023-01-02T01:03:04.671Z,97863.09
2023-01-02T01:05:31.206Z,97866.00
2023-01-02T01:07:57.750Z,97860.75
2023-01-02T01:10:24.892Z,97873.09
2023-01-02T01:12:51.395Z,97863.34
2023-01-02T01:15:17.961Z,97863.06
2023-01-02T01:17:44.448Z,97863.72
2023-01-02T01:20:11.324Z,97859.41
2023-01-02T01:22:38.432Z,97856.63
2023-01-02T01:25:05.241Z,97851.97
2023-01-02T01:27:31.705Z,97852.25
2023-01-02T01:29:58.177Z,97853.34
2023-01-02T01:32:24.644Z,97859.69
2023-01-02T01:34:51.110Z,97861.31
2023-01-02T01:37:17.565Z,97862.91
2023-01-02T01:39:44.028Z,97862.91
2023-01-02T01:42:12.980Z,97861.63
2023-01-02T01:44:50.331Z,97862.34
2023-01-02T01:47:38.132Z,97869.66
2023-01-02T01:50:09.084Z,97858.06
2023-01-02T01:52:38.318Z,97858.84
2023-01-02T01:55:17.668Z,97860.09
2023-01-02T01:57:50.930Z,97862.81
2023-01-02T02:00:17.520Z,97862.72
2023-01-02T02:02:45.359Z,97859.06
2023-01-02T02:05:12.272Z,97860.31
2023-01-02T02:07:40.520Z,97869.81
2023-01-02T02:10:08.507Z,97865.13
2023-01-02T02:12:34.992Z,97860.75
2023-01-02T02:15:01.479Z,97849.19
2023-01-02T02:17:33.820Z,97857.53
2023-01-02T02:20:26.113Z,97858.19
2023-01-02T02:23:17.060Z,97849.34
2023-01-02T02:25:55.437Z,97839.91
2023-01-02T02:28:38.316Z,97839.31
2023-01-02T02:31:29.580Z,97831.34
2023-01-02T02:34:02.912Z,97835.44
2023-01-02T02:36:40.874Z,97836.72
2023-01-02T02:39:15.499Z,97825.81
2023-01-02T02:41:59.556Z,97830.19
2023-01-02T02:44:47.883Z,97840.44
2023-01-02T02:47:22.255Z,97836.28
2023-01-02T02:49:53.140Z,97824.13
2023-01-02T02:52:41.430Z,97834.75
2023-01-02T02:55:24.320Z,97825.53
2023-01-02T02:57:50.841Z,97835.47
2023-01-02T03:00:19.612Z,97822.22
2023-01-02T03:02:46.577Z,97839.34
2023-01-02T03:05:16.463Z,97832.22
2023-01-02T03:07:46.667Z,97826.34
2023-01-02T03:10:12.932Z,97838.56
2023-01-02T03:13:09.945Z,97837.28
2023-01-02T03:15:56.547Z,97845.13
2023-01-02T03:18:35.833Z,97834.69
2023-01-02T03:21:10.973Z,97838.31
2023-01-02T03:23:48.763Z,97824.31
2023-01-02T03:26:17.623Z,97831.34
2023-01-02T03:28:46.216Z,97826.16
2023-01-02T03:31:15.891Z,97824.19
2023-01-02T03:33:44.436Z,97829.59
2023-01-02T03:36:14.357Z,97824.00
2023-01-02T03:38:44.357Z,97827.63
2023-01-02T03:41:32.357Z,97817.38
2023-01-02T03:43:58.860Z,97815.41
2023-01-02T03:46:31.245Z,97817.63
2023-01-02T03:49:02.339Z,97820.41
2023-01-02T03:51:28.820Z,97821.53
2023-01-02T03:53:55.307Z,97826.72
2023-01-02T03:56:43.165Z,97807.69
2023-01-02T03:59:14.383Z,97805.47
2023-01-02T04:01:49.692Z,97808.69
2023-01-02T04:04:20.240Z,97814.59
2023-01-02T04:06:49.345Z,97804.91
2023-01-02T04:09:26.833Z,97807.78
2023-01-02T04:11:56.292Z,97810.09
2023-01-02T04:14:32.901Z,97804.03
2023-01-02T04:16:59.645Z,97807.19
2023-01-02T04:19:27.747Z,97811.28
2023-01-02T04:21:56.383Z,97816.78
2023-01-02T04:24:26.989Z,97828.25
2023-01-02T04:26:59.511Z,97819.56
2023-01-02T04:29:26.058Z,97818.66
2023-01-02T04:31:58.746Z,97818.31
2023-01-02T04:34:25.304Z,97820.38
2023-01-02T04:36:51.830Z,97826.34
2023-01-02T04:39:18.982Z,97812.53
2023-01-02T04:41:45.435Z,97811.47
2023-01-02T04:44:11.923Z,97808.16
2023-01-02T04:46:38.431Z,97810.63
2023-01-02T04:49:04.948Z,97808.38
2023-01-02T04:51:31.415Z,97813.03
2023-01-02T04:53:57.877Z,97820.44
2023-01-02T04:56:24.363Z,97823.34
2023-01-02T04:58:50.917Z,97836.22
2023-01-02T05:01:18.498Z,97838.22
2023-01-02T05:03:46.965Z,97827.81
2023-01-02T05:06:13.495Z,97831.03
2023-01-02T05:08:39.976Z,97828.56
2023-01-02T05:11:17.034Z,97824.16
2023-01-02T05:13:43.659Z,97825.56
2023-01-02T05:16:10.237Z,97825.69
2023-01-02T05:18:36.851Z,97830.31
2023-01-02T05:21:27.964Z,97823.13
2023-01-02T05:23:54.957Z,97825.91
2023-01-02T05:26:21.682Z,97825.25
2023-01-02T05:28:48.154Z,97827.59
2023-01-02T05:31:14.659Z,97847.34
2023-01-02T05:33:41.193Z,97834.75
2023-01-02T05:36:08.338Z,97840.69
2023-01-02T05:38:34.898Z,97837.84
2023-01-02T05:41:02.603Z,97851.72
2023-01-02T05:43:36.594Z,97848.41
2023-01-02T05:46:13.298Z,97843.44
2023-01-02T05:48:40.044Z,97839.69
2023-01-02T05:51:07.393Z,97838.50
2023-01-02T05:53:33.982Z,97847.13
2023-01-02T05:56:08.279Z,97847.00
2023-01-02T05:58:35.241Z,97850.16
2023-01-02T06:01:05.698Z,97859.22
2023-01-02T06:03:32.269Z,97860.91
2023-01-02T06:06:03.062Z,97855.03
2023-01-02T06:08:29.529Z,97857.34
2023-01-02T06:10:56.061Z,97869.66
2023-01-02T06:13:22.531Z,97858.13
2023-01-02T06:15:48.999Z,97855.41
2023-01-02T06:18:15.466Z,97856.16
2023-01-02T06:20:41.934Z,97860.50
2023-01-02T06:23:08.404Z,97853.81
2023-01-02T06:25:34.894Z,97846.63
2023-01-02T06:28:01.377Z,97851.03
2023-01-02T06:30:27.845Z,97846.63
2023-01-02T06:32:55.916Z,97847.84
2023-01-02T06:35:22.590Z,97851.47
2023-01-02T06:37:49.055Z,97854.19
2023-01-02T06:40:15.598Z,97858.50
2023-01-02T06:42:45.234Z,97851.19
2023-01-02T06:45:11.798Z,97865.34
2023-01-02T06:47:38.279Z,97862.56
2023-01-02T06:50:04.948Z,97873.63
2023-01-02T06:52:31.421Z,97870.53
2023-01-02T06:54:57.931Z,97870.84
2023-01-02T06:57:24.397Z,97864.84
2023-01-02T06:59:50.853Z,97872.00
2023-01-02T07:02:17.398Z,97874.13
2023-01-02T07:04:43.938Z,97877.56
2023-01-02T07:07:10.410Z,97892.06
2023-01-02T07:09:36.880Z,97889.97
2023-01-02T07:12:04.124Z,97881.88
2023-01-02T07:14:30.640Z,97882.78
2023-01-02T07:16:57.189Z,97894.25
2023-01-02T07:19:23.704Z,97897.47
2023-01-02T07:21:50.202Z,97901.41
2023-01-02T07:24:16.713Z,97892.88
2023-01-02T07:26:43.203Z,97904.16
2023-01-02T07:29:09.702Z,97898.59
2023-01-02T07:31:36.198Z,97898.38
2023-01-02T07:34:02.739Z,97895.88
2023-01-02T07:36:29.215Z,97904.88
2023-01-02T07:38:55.976Z,97894.63
2023-01-02T07:41:23.951Z,97907.22
2023-01-02T07:43:50.607Z,97904.72
2023-01-02T07:46:18.119Z,97899.25
2023-01-02T07:48:45.083Z,97890.69
2023-01-02T07:51:11.789Z,97886.81
2023-01-02T07:53:38.603Z,97891.56
2023-01-02T07:56:05.348Z,97895.47
2023-01-02T07:58:31.807Z,97893.19
2023-01-02T08:01:05.148Z,97889.84
2023-01-02T08:03:32.258Z,97905.13
2023-01-02T08:06:09.073Z,97899.13
2023-01-02T08:08:35.768Z,97902.34
2023-01-02T08:11:13.332Z,97897.59
2023-01-02T08:13:39.904Z,97905.75
2023-01-02T08:16:17.235Z,97870.19
2023-01-02T08:18:44.061Z,97898.09
2023-01-02T08:21:10.783Z,97902.47
2023-01-02T08:23:37.336Z,97896.25
2023-01-02T08:26:07.834Z,97910.81
2023-01-02T08:28:34.516Z,97910.06
2023-01-02T08:31:01.084Z,97911.06
2023-01-02T08:33:27.647Z,97901.22
2023-01-02T08:35:54.161Z,97907.09
2023-01-02T08:38:20.629Z,97915.84
2023-01-02T08:40:47.134Z,97924.84
2023-01-02T08:43:13.608Z,97924.44
2023-01-02T08:45:40.579Z,97903.13
2023-01-02T08:48:20.887Z,97934.75
2023-01-02T08:50:48.803Z,97925.59
2023-01-02T08:53:15.293Z,97929.22
2023-01-02T08:55:41.764Z,97925.91
2023-01-02T08:58:08.227Z,97930.56
2023-01-02T09:00:34.733Z,97923.78
2023-01-02T09:03:01.347Z,97934.03
2023-01-02T09:05:30.868Z,97930.81
2023-01-02T09:07:58.255Z,97944.00
2023-01-02T09:10:24.875Z,97938.19
2023-01-02T09:12:51.424Z,97951.72
2023-01-02T09:15:17.941Z,97939.72
2023-01-02T09:17:44.419Z,97946.34
2023-01-02T09:20:11.006Z,97934.00
2023-01-02T09:22:37.627Z,97954.59
2023-01-02T09:25:04.778Z,97951.91
2023-01-02T09:27:31.243Z,97954.38
2023-01-02T09:29:57.695Z,97948.69
2023-01-02T09:32:24.161Z,97961.84
2023-01-02T09:34:50.826Z,97948.31
2023-01-02T09:37:17.708Z,97961.38
2023-01-02T09:39:44.226Z,97973.47
2023-01-02T09:42:13.893Z,97978.09
2023-01-02T09:44:43.330Z,97973.69
2023-01-02T09:47:16.184Z,97970.72
2023-01-02T09:49:53.189Z,97989.31
2023-01-02T09:52:26.669Z,97989.19
2023-01-02T09:54:53.166Z,97996.38
2023-01-02T09:57:28.613Z,97996.44
2023-01-02T10:00:15.807Z,98004.09
2023-01-02T10:02:54.448Z,98022.13
2023-01-02T10:05:49.154Z,98033.69
2023-01-02T10:08:25.098Z,98021.16
2023-01-02T10:11:03.392Z,98034.66
2023-01-02T10:14:18.137Z,98039.59
2023-01-02T10:16:41.905Z,98046.31
2023-01-02T10:19:40.707Z,98061.34
2023-01-02T10:22:09.733Z,98065.28
2023-01-02T10:24:40.658Z,98049.31
2023-01-02T10:27:11.836Z,98059.06
2023-01-02T10:29:40.244Z,98078.50
2023-01-02T10:32:15.039Z,98072.78
2023-01-02T10:35:05.880Z,98068.16
2023-01-02T10:37:32.391Z,98067.34
2023-01-02T10:39:58.840Z,98081.66
2023-01-02T10:42:25.312Z,98064.91
2023-01-02T10:44:51.805Z,98065.38
2023-01-02T10:47:33.475Z,98065.16
2023-01-02T10:49:59.989Z,98077.28
2023-01-02T10:53:06.079Z,98064.56
2023-01-02T10:55:42.428Z,98074.06
2023-01-02T10:58:26.409Z,98077.09
2023-01-02T11:01:06.836Z,98073.50
2023-01-02T11:03:33.539Z,98090.25
2023-01-02T11:06:16.046Z,98094.41
2023-01-02T11:08:55.093Z,98106.56
2023-01-02T11:11:21.581Z,98107.53
2023-01-02T11:13:54.148Z,98109.34
2023-01-02T11:16:21.881Z,98120.00
2023-01-02T11:18:53.100Z,98112.84
2023-01-02T11:21:33.139Z,98123.41
2023-01-02T11:24:01.394Z,98114.19
2023-01-02T11:26:27.960Z,98118.94
2023-01-02T11:28:54.602Z,98116.16
2023-01-02T11:31:21.161Z,98120.09
2023-01-02T11:33:47.658Z,98117.31
2023-01-02T11:36:18.613Z,98114.44
2023-01-02T11:38:56.514Z,98118.03
2023-01-02T11:41:56.629Z,98130.94
2023-01-02T11:44:41.810Z,98137.34
2023-01-02T11:47:09.627Z,98147.13
2023-01-02T11:49:48.710Z,98160.81
2023-01-02T11:52:17.027Z,98155.16
2023-01-02T11:54:56.632Z,98149.97
2023-01-02T11:57:44.706Z,98164.47
2023-01-02T12:00:12.949Z,98171.97
2023-01-02T12:02:44.353Z,98168.25
2023-01-02T12:05:15.636Z,98179.81
2023-01-02T12:07:46.631Z,98174.06
2023-01-02T12:10:40.529Z,98182.13
2023-01-02T12:13:15.721Z,98172.91
2023-01-02T12:15:57.894Z,98163.09
2023-01-02T12:18:44.769Z,98163.56
2023-01-02T12:21:17.330Z,98164.88
2023-01-02T12:23:57.976Z,98162.72
2023-01-02T12:26:28.552Z,98158.19
2023-01-02T12:29:10.389Z,98154.03
2023-01-02T12:31:55.168Z,98160.28
2023-01-02T12:34:36.856Z,98167.44
2023-01-02T12:37:24.274Z,98158.03
2023-01-02T12:39:55.048Z,98179.97
2023-01-02T12:42:36.734Z,98174.06
2023-01-02T12:45:03.261Z,98170.28
2023-01-02T12:47:35.645Z,98173.75
2023-01-02T12:50:45.390Z,98164.84
2023-01-02T12:53:33.592Z,98170.50
2023-01-02T12:56:08.971Z,98186.94
2023-01-02T12:58:57.510Z,98188.88
2023-01-02T13:01:29.500Z,98199.03
2023-01-02T13:04:00.697Z,98204.13
2023-01-02T13:06:44.535Z,98213.47
2023-01-02T13:09:23.813Z,98213.13
2023-01-02T13:12:03.836Z,98218.59
2023-01-02T13:14:33.641Z,98220.56
2023-01-02T13:17:07.705Z,98223.34
2023-01-02T13:19:36.560Z,98231.09
2023-01-02T13:22:19.431Z,98231.53
2023-01-02T13:24:45.896Z,98230.59
2023-01-02T13:27:12.377Z,98221.59
2023-01-02T13:29:43.315Z,98229.00
2023-01-02T13:32:11.201Z,98233.25
2023-01-02T13:34:40.922Z,98234.06
2023-01-02T13:37:13.685Z,98235.34
2023-01-02T13:39:39.974Z,98216.50
2023-01-02T13:42:25.361Z,98230.63
2023-01-02T13:44:53.341Z,98232.34
2023-01-02T13:47:34.657Z,98231.63
2023-01-02T13:50:23.080Z,98233.94
2023-01-02T13:53:01.488Z,98235.44
2023-01-02T13:55:41.112Z,98257.38
2023-01-02T13:58:17.853Z,98264.00
2023-01-02T14:00:53.495Z,98251.75
2023-01-02T14:03:23.801Z,98265.25
2023-01-02T14:06:01.389Z,98258.44
2023-01-02T14:08:29.050Z,98265.72
2023-01-02T14:11:13.483Z,98266.41
2023-01-02T14:13:46.860Z,98268.72
2023-01-02T14:16:22.372Z,98278.19
2023-01-02T14:19:13.623Z,98273.78
2023-01-02T14:21:42.947Z,98287.97
2023-01-02T14:24:18.437Z,98298.16
2023-01-02T14:26:45.416Z,98292.72
2023-01-02T14:29:15.169Z,98292.97
2023-01-02T14:31:41.634Z,98301.16
2023-01-02T14:34:09.271Z,98297.44
2023-01-02T14:36:44.278Z,98318.09
2023-01-02T14:39:20.284Z,98313.59
2023-01-02T14:42:08.393Z,98328.38
2023-01-02T14:44:50.209Z,98317.19
2023-01-02T14:47:19.166Z,98321.56
2023-01-02T14:49:48.230Z,98336.22
2023-01-02T14:52:25.624Z,98336.53
2023-01-02T14:54:55.811Z,98352.56
2023-01-02T14:57:29.869Z,98342.06
2023-01-02T14:59:58.415Z,98345.19
2023-01-02T15:02:30.243Z,98347.84
2023-01-02T15:05:03.476Z,98350.13
2023-01-02T15:07:31.826Z,98342.06
2023-01-02T15:10:04.011Z,98337.88
2023-01-02T15:12:50.556Z,98332.59
2023-01-02T15:15:18.838Z,98330.72
2023-01-02T15:17:46.343Z,98330.25
2023-01-02T15:20:18.015Z,98346.53
2023-01-02T15:22:45.364Z,98345.38
2023-01-02T15:25:12.792Z,98344.53
2023-01-02T15:27:41.000Z,98349.38
2023-01-02T15:30:30.527Z,98352.09
2023-01-02T15:32:56.991Z,98359.13
2023-01-02T15:35:28.556Z,98368.72
2023-01-02T15:37:55.223Z,98380.44
2023-01-02T15:40:31.124Z,98387.34
2023-01-02T15:43:21.853Z,98398.16
2023-01-02T15:45:51.468Z,98402.72
2023-01-02T15:48:22.015Z,98392.59
2023-01-02T15:50:49.731Z,98391.53
2023-01-02T15:53:29.729Z,98397.00
2023-01-02T15:55:56.567Z,98391.00
2023-01-02T15:58:22.889Z,98409.97
2023-01-02T16:00:51.454Z,98409.44
2023-01-02T16:04:01.832Z,98418.75
2023-01-02T16:06:41.296Z,98415.66
2023-01-02T16:09:15.315Z,98427.53
2023-01-02T16:11:47.039Z,98420.56
2023-01-02T16:14:21.980Z,98416.75
2023-01-02T16:16:57.633Z,98414.38
2023-01-02T16:19:32.229Z,98423.47
2023-01-02T16:22:18.134Z,98411.59
2023-01-02T16:24:47.921Z,98411.38
2023-01-02T16:27:15.064Z,98421.97
2023-01-02T16:29:42.897Z,98415.44
2023-01-02T16:32:25.965Z,98423.50
2023-01-02T16:35:19.829Z,98429.44
2023-01-02T16:37:58.662Z,98427.34
2023-01-02T16:40:59.902Z,98432.69
2023-01-02T16:43:12.048Z,98428.16
2023-01-02T16:45:38.943Z,98433.50
2023-01-02T16:48:05.969Z,98443.78
2023-01-02T16:50:41.537Z,98442.66
2023-01-02T16:53:08.113Z,98449.75
2023-01-02T16:55:34.762Z,98445.03
2023-01-02T16:58:01.303Z,98460.25
2023-01-02T17:00:27.775Z,98460.63
2023-01-02T17:02:54.340Z,98485.56
2023-01-02T17:05:27.528Z,98487.88
2023-01-02T17:07:54.013Z,98492.59
2023-01-02T17:10:21.023Z,98487.56
2023-01-02T17:12:47.496Z,98498.47
2023-01-02T17:15:14.801Z,98505.94
2023-01-02T17:17:41.337Z,98509.78
2023-01-02T17:20:09.478Z,98518.44
2023-01-02T17:22:37.031Z,98525.06
2023-01-02T17:25:04.192Z,98525.22
2023-01-02T17:27:30.660Z,98529.44
2023-01-02T17:29:57.146Z,98523.94
2023-01-02T17:32:23.609Z,98533.34
2023-01-02T17:34:50.390Z,98526.19
2023-01-02T17:37:16.933Z,98535.09
2023-01-02T17:39:44.107Z,98532.03
2023-01-02T17:42:11.600Z,98518.31
2023-01-02T17:44:38.411Z,98516.41
2023-01-02T17:47:38.948Z,98513.97
2023-01-02T17:49:51.381Z,98518.50
2023-01-02T17:52:17.982Z,98519.50
2023-01-02T17:54:44.787Z,98515.63
2023-01-02T17:57:11.350Z,98527.13
2023-01-02T17:59:38.820Z,98537.19
2023-01-02T18:02:05.427Z,98544.03
2023-01-02T18:04:31.994Z,98539.50
2023-01-02T18:06:58.466Z,98536.75
2023-01-02T18:09:24.964Z,98534.00
2023-01-02T18:11:51.433Z,98550.56
2023-01-02T18:14:23.249Z,98554.00
2023-01-02T18:16:51.505Z,98547.31
2023-01-02T18:19:20.950Z,98577.72
2023-01-02T18:21:47.482Z,98574.09
2023-01-02T18:24:24.179Z,98574.31
2023-01-02T18:26:54.408Z,98581.13
2023-01-02T18:29:21.981Z,98578.19
2023-01-02T18:31:48.839Z,98577.88
2023-01-02T18:34:47.243Z,98582.75
2023-01-02T18:37:20.228Z,98588.91
2023-01-02T18:39:46.683Z,98588.78
2023-01-02T18:42:21.636Z,98602.44
2023-01-02T18:44:49.714Z,98611.03
2023-01-02T18:47:27.999Z,98604.34
2023-01-02T18:50:08.080Z,98618.34
2023-01-02T18:52:35.408Z,98620.97
2023-01-02T18:55:10.944Z,98620.31
2023-01-02T18:57:43.384Z,98626.00
2023-01-02T19:00:21.606Z,98616.06
2023-01-02T19:03:03.210Z,98619.97
2023-01-02T19:05:38.350Z,98620.16
2023-01-02T19:08:08.052Z,98618.53
2023-01-02T19:10:38.782Z,98621.09
2023-01-02T19:13:31.886Z,98622.22
2023-01-02T19:16:02.522Z,98639.97
2023-01-02T19:18:35.086Z,98646.81
2023-01-02T19:21:29.217Z,98648.75
2023-01-02T19:24:04.727Z,98663.88
2023-01-02T19:26:38.603Z,98660.63
2023-01-02T19:29:13.991Z,98667.78
2023-01-02T19:31:46.488Z,98665.34
2023-01-02T19:34:48.421Z,98674.75
2023-01-02T19:37:46.693Z,98681.28
2023-01-02T19:40:19.746Z,98678.97
2023-01-02T19:42:47.767Z,98698.66
2023-01-02T19:45:19.072Z,98714.56
2023-01-02T19:47:45.796Z,98712.63
2023-01-02T19:50:14.747Z,98721.06
2023-01-02T19:52:41.268Z,98728.06
2023-01-02T19:55:08.120Z,98734.22
2023-01-02T19:57:34.821Z,98741.53
2023-01-02T20:00:01.374Z,98742.78
2023-01-02T20:02:28.108Z,98745.72
2023-01-02T20:04:55.360Z,98735.59
2023-01-02T20:07:22.709Z,98744.56
2023-01-02T20:09:49.460Z,98749.22
2023-01-02T20:12:34.012Z,98742.53
2023-01-02T20:15:07.268Z,98761.19
2023-01-02T20:17:34.229Z,98768.03
2023-01-02T20:20:00.729Z,98755.66
2023-01-02T20:22:28.033Z,98759.06
2023-01-02T20:24:55.026Z,98766.72
2023-01-02T20:27:21.609Z,98759.88
2023-01-02T20:29:48.680Z,98776.38
2023-01-02T20:32:15.171Z,98772.72
2023-01-02T20:34:41.732Z,98778.16
2023-01-02T20:37:08.220Z,98776.66
2023-01-02T20:39:34.690Z,98796.34
2023-01-02T20:42:01.156Z,98798.63
2023-01-02T20:44:27.830Z,98802.53
2023-01-02T20:46:56.212Z,98803.34
2023-01-02T20:49:25.300Z,98804.84
2023-01-02T20:51:55.718Z,98810.34
2023-01-02T20:54:23.296Z,98823.66
2023-01-02T20:56:49.765Z,98828.41
2023-01-02T20:59:16.842Z,98827.91
2023-01-02T21:01:44.278Z,98841.41
2023-01-02T21:04:18.791Z,98830.63
2023-01-02T21:06:52.063Z,98834.81
2023-01-02T21:09:18.653Z,98837.38
2023-01-02T21:11:47.898Z,98840.53
2023-01-02T21:14:14.738Z,98847.56
2023-01-02T21:16:41.591Z,98858.28
2023-01-02T21:19:08.094Z,98867.09
2023-01-02T21:21:34.692Z,98863.63
2023-01-02T21:24:01.697Z,98874.53
2023-01-02T21:26:28.300Z,98861.88
2023-01-02T21:28:54.883Z,98875.34
2023-01-02T21:31:21.643Z,98875.97
2023-01-02T21:33:48.205Z,98873.94
2023-01-02T21:36:15.578Z,98888.13
2023-01-02T21:38:42.294Z,98893.25
2023-01-02T21:41:27.343Z,98897.47
2023-01-02T21:43:53.842Z,98905.19
2023-01-02T21:46:20.377Z,98901.63
2023-01-02T21:48:46.900Z,98900.09
2023-01-02T21:51:13.736Z,98911.34
2023-01-02T21:53:40.326Z,98908.88
2023-01-02T21:56:06.985Z,98905.56
2023-01-02T21:58:33.445Z,98909.28
2023-01-02T22:00:59.966Z,98923.00
2023-01-02T22:03:26.749Z,98920.34
2023-01-02T22:05:53.787Z,98924.38
2023-01-02T22:08:20.313Z,98923.63
2023-01-02T22:10:48.768Z,98939.16
2023-01-02T22:13:15.458Z,98939.00
2023-01-02T22:15:41.971Z,98955.09
2023-01-02T22:18:08.443Z,98946.56
2023-01-02T22:20:35.138Z,98953.41
2023-01-02T22:23:01.591Z,98955.66
2023-01-02T22:25:28.051Z,98946.06
2023-01-02T22:27:54.517Z,98958.13
2023-01-02T22:30:27.511Z,98967.13
2023-01-02T22:32:59.772Z,98973.34
2023-01-02T22:35:26.251Z,98974.78
2023-01-02T22:37:52.775Z,98978.16
2023-01-02T22:40:20.237Z,98978.66
2023-01-02T22:43:01.696Z,98974.28
2023-01-02T22:45:30.506Z,98991.22
2023-01-02T22:47:57.853Z,98993.28
2023-01-02T22:50:26.349Z,98999.25
2023-01-02T22:52:52.845Z,98997.56
2023-01-02T22:55:20.496Z,98997.16
2023-01-02T22:57:51.481Z,99006.97
2023-01-02T23:00:19.531Z,99009.31
2023-01-02T23:02:46.278Z,99003.75
2023-01-02T23:05:20.543Z,99008.59
2023-01-02T23:07:47.207Z,99007.31
2023-01-02T23:10:13.828Z,99000.84
2023-01-02T23:12:40.349Z,99007.31
2023-01-02T23:15:07.853Z,99014.00
2023-01-02T23:17:52.923Z,99017.22
2023-01-02T23:20:19.413Z,99017.22
2023-01-02T23:22:46.918Z,99016.50
2023-01-02T23:25:14.642Z,99020.38
2023-01-02T23:27:41.104Z,99011.59
2023-01-02T23:30:08.007Z,99007.09
2023-01-02T23:32:34.479Z,99011.50
2023-01-02T23:35:00.970Z,99018.34
2023-01-02T23:37:27.449Z,99019.25
2023-01-02T23:39:53.968Z,99020.50
2023-01-02T23:42:20.499Z,99023.56
2023-01-02T23:44:47.105Z,99033.16
2023-01-02T23:47:18.926Z,99021.50
2023-01-02T23:49:45.857Z,99021.91
2023-01-02T23:52:12.409Z,99024.41
2023-01-02T23:54:38.921Z,99030.00
2023-01-02T23:57:05.484Z,99022.25
2023-01-02T23:59:32.012Z,99029.19
